createdAt,value
2018-09-09T00:00:01.128Z,0.00
2018-09-09T00:00:36.339Z,0.00
2018-09-09T00:01:11.937Z,0.00
2018-09-09T00:01:47.372Z,0.00
2018-09-09T00:02:22.983Z,0.00
2018-09-09T00:02:58.205Z,0.00
2018-09-09T00:03:33.444Z,0.00
2018-09-09T00:04:09.134Z,0.00
2018-09-09T00:04:44.580Z,0.00
2018-09-09T00:05:20.210Z,0.00
2018-09-09T00:05:55.452Z,0.00
2018-09-09T00:06:30.651Z,0.00
2018-09-09T00:07:05.912Z,0.00
2018-09-09T00:07:41.456Z,0.00
2018-09-09T00:08:16.586Z,0.00
2018-09-09T00:08:52.151Z,0.00
2018-09-09T00:09:27.571Z,0.00
2018-09-09T00:10:02.929Z,0.00
2018-09-09T00:10:38.294Z,0.00
2018-09-09T00:11:13.598Z,0.00
2018-09-09T00:11:49.043Z,0.00
2018-09-09T00:12:24.460Z,0.00
2018-09-09T00:13:00.019Z,0.00
2018-09-09T00:13:35.426Z,0.00
2018-09-09T00:14:10.647Z,0.00
2018-09-09T00:14:45.992Z,0.00
2018-09-09T00:15:21.346Z,0.00
2018-09-09T00:15:56.644Z,0.00
2018-09-09T00:16:32.077Z,0.00
2018-09-09T00:17:07.345Z,0.00
2018-09-09T00:17:42.677Z,0.00
2018-09-09T00:18:17.976Z,0.00
2018-09-09T00:18:53.238Z,0.00
2018-09-09T00:19:28.752Z,0.00
2018-09-09T00:20:03.979Z,0.00
2018-09-09T00:20:39.470Z,0.00
2018-09-09T00:21:14.829Z,0.00
2018-09-09T00:21:50.133Z,0.00
2018-09-09T00:22:25.222Z,0.00
2018-09-09T00:23:01.253Z,0.00
2018-09-09T00:23:36.407Z,0.00
2018-09-09T00:24:12.114Z,0.00
2018-09-09T00:24:47.767Z,0.00
2018-09-09T00:25:23.075Z,0.00
2018-09-09T00:25:58.543Z,0.00
2018-09-09T00:26:33.803Z,0.00
2018-09-09T00:27:09.209Z,0.00
2018-09-09T00:27:44.384Z,0.00
2018-09-09T00:28:19.610Z,0.00
2018-09-09T00:28:54.958Z,0.00
2018-09-09T00:29:30.311Z,0.00
2018-09-09T00:30:05.713Z,0.00
2018-09-09T00:30:41.008Z,0.00
2018-09-09T00:31:16.458Z,0.00
2018-09-09T00:31:52.123Z,0.00
2018-09-09T00:32:27.589Z,0.00
2018-09-09T00:33:03.031Z,0.00
2018-09-09T00:33:38.363Z,0.00
2018-09-09T00:34:13.544Z,0.00
2018-09-09T00:34:48.969Z,0.00
2018-09-09T00:35:24.677Z,0.00
2018-09-09T00:35:59.944Z,0.00
2018-09-09T00:36:35.181Z,0.00
2018-09-09T00:37:10.554Z,0.00
2018-09-09T00:37:46.118Z,0.00
2018-09-09T00:38:21.461Z,0.00
2018-09-09T00:38:57.359Z,0.00
2018-09-09T00:39:32.667Z,0.00
2018-09-09T00:40:07.994Z,0.00
2018-09-09T00:40:43.341Z,0.00
2018-09-09T00:41:18.757Z,0.00
2018-09-09T00:41:54.097Z,0.00
2018-09-09T00:42:29.737Z,0.00
2018-09-09T00:43:04.984Z,0.00
2018-09-09T00:43:40.226Z,0.00
2018-09-09T00:44:15.531Z,0.00
2018-09-09T00:44:50.674Z,0.00
2018-09-09T00:45:25.988Z,0.00
2018-09-09T00:46:01.937Z,0.00
2018-09-09T00:46:37.172Z,0.00
2018-09-09T00:47:12.908Z,0.00
2018-09-09T00:47:48.249Z,0.00
2018-09-09T00:48:23.507Z,0.00
2018-09-09T00:48:58.764Z,0.00
2018-09-09T00:49:33.874Z,0.00
2018-09-09T00:50:09.117Z,0.00
2018-09-09T00:50:44.332Z,0.00
2018-09-09T00:51:19.648Z,0.00
2018-09-09T00:51:54.853Z,0.00
2018-09-09T00:52:30.057Z,0.00
2018-09-09T00:53:05.648Z,0.00
2018-09-09T00:53:41.377Z,0.00
2018-09-09T00:54:16.608Z,0.00
2018-09-09T00:54:51.834Z,0.00
2018-09-09T00:55:27.180Z,0.00
2018-09-09T00:56:02.422Z,0.00
2018-09-09T00:56:37.846Z,0.00
2018-09-09T00:57:13.393Z,0.00
2018-09-09T00:57:49.042Z,0.00
2018-09-09T00:58:24.361Z,0.00
2018-09-09T00:58:59.988Z,0.00
2018-09-09T00:59:35.495Z,0.00
2018-09-09T01:00:10.834Z,0.00
2018-09-09T01:00:46.232Z,0.00
2018-09-09T01:01:21.561Z,0.00
2018-09-09T01:01:57.115Z,0.00
2018-09-09T01:02:32.341Z,0.00
2018-09-09T01:03:07.682Z,0.00
2018-09-09T01:03:43.100Z,0.00
2018-09-09T01:04:18.844Z,0.00
2018-09-09T01:04:54.301Z,0.00
2018-09-09T01:05:29.613Z,0.00
2018-09-09T01:06:05.042Z,0.00
2018-09-09T01:06:40.549Z,0.00
2018-09-09T01:07:16.021Z,0.00
2018-09-09T01:07:51.456Z,0.00
2018-09-09T01:08:26.888Z,0.00
2018-09-09T01:09:02.160Z,0.00
2018-09-09T01:09:39.065Z,0.00
2018-09-09T01:10:14.223Z,0.00
2018-09-09T01:10:49.830Z,0.00
2018-09-09T01:11:24.971Z,0.00
2018-09-09T01:12:00.206Z,0.00
2018-09-09T01:12:35.627Z,0.00
2018-09-09T01:13:10.847Z,0.00
2018-09-09T01:13:46.173Z,0.00
2018-09-09T01:14:21.663Z,0.00
2018-09-09T01:14:57.224Z,0.00
2018-09-09T01:15:32.461Z,0.00
2018-09-09T01:16:07.899Z,0.00
2018-09-09T01:16:43.331Z,0.00
2018-09-09T01:17:18.779Z,0.00
2018-09-09T01:17:54.345Z,0.00
2018-09-09T01:18:29.548Z,0.00
2018-09-09T01:19:05.107Z,0.00
2018-09-09T01:19:40.376Z,0.00
2018-09-09T01:20:16.040Z,0.00
2018-09-09T01:20:51.150Z,0.00
2018-09-09T01:21:27.114Z,0.00
2018-09-09T01:22:02.455Z,0.00
2018-09-09T01:22:38.078Z,0.00
2018-09-09T01:23:13.508Z,0.00
2018-09-09T01:23:48.824Z,0.00
2018-09-09T01:24:24.251Z,0.00
2018-09-09T01:24:59.726Z,0.00
2018-09-09T01:25:34.959Z,0.00
2018-09-09T01:26:10.592Z,0.00
2018-09-09T01:26:45.908Z,0.00
2018-09-09T01:27:21.371Z,0.00
2018-09-09T01:27:56.610Z,0.00
2018-09-09T01:28:31.961Z,0.00
2018-09-09T01:29:07.413Z,0.00
2018-09-09T01:29:42.877Z,0.00
2018-09-09T01:30:18.056Z,0.00
2018-09-09T01:30:53.229Z,0.00
2018-09-09T01:31:28.570Z,0.00
2018-09-09T01:32:04.016Z,0.00
2018-09-09T01:32:39.402Z,0.00
2018-09-09T01:33:14.741Z,0.00
2018-09-09T01:33:50.193Z,0.00
2018-09-09T01:34:25.553Z,0.00
2018-09-09T01:35:00.905Z,0.00
2018-09-09T01:35:36.400Z,0.00
2018-09-09T01:36:11.640Z,0.00
2018-09-09T01:36:46.938Z,0.00
2018-09-09T01:37:22.472Z,0.00
2018-09-09T01:37:57.800Z,0.00
2018-09-09T01:38:33.218Z,0.00
2018-09-09T01:39:08.658Z,0.00
2018-09-09T01:39:43.892Z,0.00
2018-09-09T01:40:19.424Z,0.00
2018-09-09T01:40:54.685Z,0.00
2018-09-09T01:41:29.998Z,0.00
2018-09-09T01:42:05.306Z,0.00
2018-09-09T01:42:40.616Z,0.00
2018-09-09T01:43:15.946Z,0.00
2018-09-09T01:43:51.470Z,0.00
2018-09-09T01:44:26.521Z,0.00
2018-09-09T01:45:01.850Z,0.00
2018-09-09T01:45:37.497Z,0.00
2018-09-09T01:46:13.091Z,0.00
2018-09-09T01:46:48.738Z,0.00
2018-09-09T01:47:24.049Z,0.00
2018-09-09T01:47:59.245Z,0.00
2018-09-09T01:48:34.765Z,0.00
2018-09-09T01:49:10.300Z,0.00
2018-09-09T01:49:45.824Z,0.00
2018-09-09T01:50:21.175Z,0.00
2018-09-09T01:50:56.798Z,0.00
2018-09-09T01:51:32.151Z,0.00
2018-09-09T01:52:07.199Z,0.00
2018-09-09T01:52:42.528Z,0.00
2018-09-09T01:53:17.772Z,0.00
2018-09-09T01:53:53.000Z,0.00
2018-09-09T01:54:28.564Z,0.00
2018-09-09T01:55:03.842Z,0.00
2018-09-09T01:55:39.079Z,0.00
2018-09-09T01:56:14.509Z,0.00
2018-09-09T01:56:49.886Z,0.00
2018-09-09T01:57:25.244Z,0.00
2018-09-09T01:58:00.560Z,0.00
2018-09-09T01:58:35.879Z,0.00
2018-09-09T01:59:11.324Z,0.00
2018-09-09T01:59:46.761Z,0.00
2018-09-09T02:00:22.202Z,0.00
2018-09-09T02:00:57.431Z,0.00
2018-09-09T02:01:32.692Z,0.00
2018-09-09T02:02:08.057Z,0.00
2018-09-09T02:02:43.705Z,0.00
2018-09-09T02:03:18.836Z,0.00
2018-09-09T02:03:54.370Z,0.00
2018-09-09T02:04:29.853Z,0.00
2018-09-09T02:05:04.985Z,0.00
2018-09-09T02:05:40.310Z,0.00
2018-09-09T02:06:15.505Z,0.00
2018-09-09T02:06:50.858Z,0.00
2018-09-09T02:07:26.214Z,0.00
2018-09-09T02:08:01.835Z,0.00
2018-09-09T02:08:37.377Z,0.00
2018-09-09T02:09:12.612Z,0.00
2018-09-09T02:09:48.059Z,0.00
2018-09-09T02:10:23.273Z,0.00
2018-09-09T02:10:58.557Z,0.00
2018-09-09T02:11:34.114Z,0.00
2018-09-09T02:12:09.589Z,0.00
2018-09-09T02:12:44.799Z,0.00
2018-09-09T02:13:20.059Z,0.00
2018-09-09T02:13:55.181Z,0.00
2018-09-09T02:14:30.745Z,0.00
2018-09-09T02:15:06.404Z,0.00
2018-09-09T02:15:41.597Z,0.00
2018-09-09T02:16:16.821Z,0.00
2018-09-09T02:16:52.090Z,0.00
2018-09-09T02:17:27.800Z,0.00
2018-09-09T02:18:02.844Z,0.00
2018-09-09T02:18:38.016Z,0.00
2018-09-09T02:19:13.490Z,0.00
2018-09-09T02:19:48.578Z,0.00
2018-09-09T02:20:23.976Z,0.00
2018-09-09T02:20:59.283Z,0.00
2018-09-09T02:21:34.716Z,0.00
2018-09-09T02:22:10.076Z,0.00
2018-09-09T02:22:45.582Z,0.00
2018-09-09T02:23:20.979Z,0.00
2018-09-09T02:23:56.304Z,0.00
2018-09-09T02:24:31.632Z,0.00
2018-09-09T02:25:07.604Z,0.00
2018-09-09T02:25:43.004Z,0.00
2018-09-09T02:26:18.561Z,0.00
2018-09-09T02:26:53.977Z,0.00
2018-09-09T02:27:29.221Z,0.00
2018-09-09T02:28:04.972Z,0.00
2018-09-09T02:28:40.424Z,0.00
2018-09-09T02:29:15.866Z,0.00
2018-09-09T02:29:51.406Z,0.00
2018-09-09T02:30:26.874Z,0.00
2018-09-09T02:31:02.196Z,0.00
2018-09-09T02:31:37.603Z,0.00
2018-09-09T02:32:13.002Z,0.00
2018-09-09T02:32:48.557Z,0.00
2018-09-09T02:33:23.819Z,0.00
2018-09-09T02:33:59.024Z,0.00
2018-09-09T02:34:34.639Z,0.00
2018-09-09T02:35:09.846Z,0.00
2018-09-09T02:35:45.079Z,0.00
2018-09-09T02:36:20.298Z,0.00
2018-09-09T02:36:55.337Z,0.00
2018-09-09T02:37:30.849Z,0.00
2018-09-09T02:38:06.409Z,0.00
2018-09-09T02:38:41.692Z,0.00
2018-09-09T02:39:17.254Z,0.00
2018-09-09T02:39:52.774Z,0.00
2018-09-09T02:40:27.927Z,0.00
2018-09-09T02:41:03.072Z,0.00
2018-09-09T02:41:38.409Z,0.00
2018-09-09T02:42:13.712Z,0.00
2018-09-09T02:42:48.973Z,0.00
2018-09-09T02:43:24.399Z,0.00
2018-09-09T02:44:00.022Z,0.00
2018-09-09T02:44:35.759Z,0.00
2018-09-09T02:45:11.080Z,0.00
2018-09-09T02:45:46.422Z,0.00
2018-09-09T02:46:21.754Z,0.00
2018-09-09T02:46:57.038Z,0.00
2018-09-09T02:47:32.551Z,0.00
2018-09-09T02:48:07.763Z,0.00
2018-09-09T02:48:43.020Z,0.00
2018-09-09T02:49:18.451Z,0.00
2018-09-09T02:49:53.698Z,0.00
2018-09-09T02:50:29.032Z,0.00
2018-09-09T02:51:04.384Z,0.00
2018-09-09T02:51:39.736Z,0.00
2018-09-09T02:52:14.969Z,0.00
2018-09-09T02:52:50.184Z,0.00
2018-09-09T02:53:25.719Z,0.00
2018-09-09T02:54:01.345Z,0.00
2018-09-09T02:54:36.609Z,0.00
2018-09-09T02:55:12.192Z,0.00
2018-09-09T02:55:47.673Z,0.00
2018-09-09T02:56:23.296Z,0.00
2018-09-09T02:56:58.725Z,0.00
2018-09-09T02:57:34.015Z,0.00
2018-09-09T02:58:09.189Z,0.00
2018-09-09T02:58:44.526Z,0.00
2018-09-09T02:59:19.967Z,0.00
2018-09-09T02:59:55.416Z,0.00
2018-09-09T03:00:30.657Z,0.00
2018-09-09T03:01:05.912Z,0.00
2018-09-09T03:01:41.500Z,0.00
2018-09-09T03:02:16.733Z,0.00
2018-09-09T03:02:51.871Z,0.00
2018-09-09T03:03:27.587Z,0.00
2018-09-09T03:04:02.632Z,0.00
2018-09-09T03:04:37.933Z,0.00
2018-09-09T03:05:13.275Z,0.00
2018-09-09T03:05:48.799Z,0.00
2018-09-09T03:06:24.162Z,0.00
2018-09-09T03:06:59.592Z,0.00
2018-09-09T03:07:35.031Z,0.00
2018-09-09T03:08:10.513Z,0.00
2018-09-09T03:08:45.711Z,0.00
2018-09-09T03:09:21.418Z,0.00
2018-09-09T03:09:56.758Z,0.00
2018-09-09T03:10:32.136Z,0.00
2018-09-09T03:11:07.543Z,0.00
2018-09-09T03:11:42.937Z,0.00
2018-09-09T03:12:18.375Z,0.00
2018-09-09T03:12:53.654Z,0.00
2018-09-09T03:13:28.915Z,0.00
2018-09-09T03:14:04.226Z,0.00
2018-09-09T03:14:39.687Z,0.00
2018-09-09T03:15:15.111Z,0.00
2018-09-09T03:15:50.892Z,0.00
2018-09-09T03:16:26.435Z,0.00
2018-09-09T03:17:01.856Z,0.00
2018-09-09T03:17:37.198Z,0.00
2018-09-09T03:18:12.332Z,0.00
2018-09-09T03:18:47.766Z,0.00
2018-09-09T03:19:23.121Z,0.00
2018-09-09T03:19:58.707Z,0.00
2018-09-09T03:20:34.112Z,0.00
2018-09-09T03:21:09.624Z,0.00
2018-09-09T03:21:44.963Z,0.00
2018-09-09T03:22:20.456Z,0.00
2018-09-09T03:22:55.792Z,0.00
2018-09-09T03:23:31.218Z,0.00
2018-09-09T03:24:06.358Z,0.00
2018-09-09T03:24:41.736Z,0.00
2018-09-09T03:25:17.242Z,0.00
2018-09-09T03:25:52.526Z,0.00
2018-09-09T03:26:27.832Z,0.00
2018-09-09T03:27:03.082Z,0.00
2018-09-09T03:27:38.724Z,0.00
2018-09-09T03:28:14.060Z,0.00
2018-09-09T03:28:49.594Z,0.00
2018-09-09T03:29:24.992Z,0.00
2018-09-09T03:30:00.914Z,0.00
2018-09-09T03:30:36.224Z,0.00
2018-09-09T03:31:11.804Z,0.00
2018-09-09T03:31:47.259Z,0.00
2018-09-09T03:32:22.508Z,0.00
2018-09-09T03:32:57.841Z,0.00
2018-09-09T03:33:33.192Z,0.00
2018-09-09T03:34:08.425Z,0.00
2018-09-09T03:34:43.989Z,0.00
2018-09-09T03:35:19.422Z,0.00
2018-09-09T03:35:54.899Z,0.00
2018-09-09T03:36:30.354Z,0.00
2018-09-09T03:37:05.991Z,0.00
2018-09-09T03:37:41.518Z,0.00
2018-09-09T03:38:16.929Z,0.00
2018-09-09T03:38:52.477Z,0.00
2018-09-09T03:39:28.127Z,0.00
2018-09-09T03:40:03.542Z,0.00
2018-09-09T03:40:38.799Z,0.00
2018-09-09T03:41:14.111Z,0.00
2018-09-09T03:41:49.655Z,0.00
2018-09-09T03:42:25.027Z,0.00
2018-09-09T03:43:00.464Z,0.00
2018-09-09T03:43:35.601Z,0.00
2018-09-09T03:44:11.016Z,0.00
2018-09-09T03:44:46.255Z,0.00
2018-09-09T03:45:21.763Z,0.00
2018-09-09T03:45:57.381Z,0.00
2018-09-09T03:46:32.762Z,0.00
2018-09-09T03:47:08.399Z,0.00
2018-09-09T03:47:43.605Z,0.00
2018-09-09T03:48:19.216Z,0.00
2018-09-09T03:48:54.967Z,0.00
2018-09-09T03:49:30.478Z,0.00
2018-09-09T03:50:05.818Z,0.00
2018-09-09T03:50:41.146Z,0.00
2018-09-09T03:51:16.382Z,0.00
2018-09-09T03:51:51.732Z,0.00
2018-09-09T03:52:27.308Z,0.00
2018-09-09T03:53:02.712Z,0.00
2018-09-09T03:53:38.401Z,0.00
2018-09-09T03:54:13.928Z,0.00
2018-09-09T03:54:49.183Z,0.00
2018-09-09T03:55:24.614Z,0.00
2018-09-09T03:56:00.132Z,0.00
2018-09-09T03:56:35.257Z,0.00
2018-09-09T03:57:10.655Z,0.00
2018-09-09T03:57:46.024Z,0.00
2018-09-09T03:58:21.434Z,0.00
2018-09-09T03:58:56.802Z,0.00
2018-09-09T03:59:32.236Z,0.00
2018-09-09T04:00:07.445Z,0.00
2018-09-09T04:00:43.087Z,0.00
2018-09-09T04:01:18.603Z,0.00
2018-09-09T04:01:53.652Z,0.00
2018-09-09T04:02:29.057Z,0.00
2018-09-09T04:03:04.623Z,0.00
2018-09-09T04:03:40.024Z,0.00
2018-09-09T04:04:15.752Z,0.00
2018-09-09T04:04:50.888Z,0.00
2018-09-09T04:05:26.399Z,0.00
2018-09-09T04:06:01.735Z,0.00
2018-09-09T04:06:37.266Z,0.00
2018-09-09T04:07:15.813Z,0.00
2018-09-09T04:07:51.339Z,0.00
2018-09-09T04:08:26.603Z,0.00
2018-09-09T04:09:01.974Z,0.00
2018-09-09T04:09:37.635Z,0.00
2018-09-09T04:10:12.992Z,0.00
2018-09-09T04:10:48.369Z,0.00
2018-09-09T04:11:23.572Z,0.00
2018-09-09T04:11:58.988Z,0.00
2018-09-09T04:12:34.232Z,0.00
2018-09-09T04:13:09.590Z,0.00
2018-09-09T04:13:44.982Z,0.00
2018-09-09T04:14:20.284Z,0.00
2018-09-09T04:14:55.406Z,0.00
2018-09-09T04:15:31.122Z,0.00
2018-09-09T04:16:06.867Z,0.00
2018-09-09T04:16:42.203Z,0.00
2018-09-09T04:17:17.856Z,0.00
2018-09-09T04:17:53.074Z,0.00
2018-09-09T04:18:28.390Z,0.00
2018-09-09T04:19:04.049Z,0.00
2018-09-09T04:19:39.282Z,0.00
2018-09-09T04:20:14.729Z,0.00
2018-09-09T04:20:50.054Z,0.00
2018-09-09T04:21:25.402Z,0.00
2018-09-09T04:22:01.262Z,0.00
2018-09-09T04:22:36.597Z,0.00
2018-09-09T04:23:12.033Z,0.00
2018-09-09T04:23:47.363Z,0.00
2018-09-09T04:24:22.791Z,0.00
2018-09-09T04:24:58.205Z,0.00
2018-09-09T04:25:33.129Z,0.00
2018-09-09T04:26:08.763Z,0.00
2018-09-09T04:26:44.293Z,0.00
2018-09-09T04:27:19.532Z,0.00
2018-09-09T04:27:54.859Z,0.00
2018-09-09T04:28:30.384Z,0.00
2018-09-09T04:29:05.596Z,0.00
2018-09-09T04:29:41.014Z,0.00
2018-09-09T04:30:16.657Z,4.00
2018-09-09T04:30:52.325Z,4.00
2018-09-09T04:31:27.519Z,4.00
2018-09-09T04:32:03.081Z,4.00
2018-09-09T04:32:38.596Z,0.00
2018-09-09T04:33:14.017Z,4.00
2018-09-09T04:33:49.249Z,4.00
2018-09-09T04:34:24.679Z,4.00
2018-09-09T04:34:59.726Z,4.00
2018-09-09T04:35:35.044Z,4.00
2018-09-09T04:36:10.168Z,8.00
2018-09-09T04:36:45.787Z,8.00
2018-09-09T04:37:20.999Z,8.00
2018-09-09T04:37:56.231Z,12.00
2018-09-09T04:38:31.464Z,12.00
2018-09-09T04:39:06.855Z,12.00
2018-09-09T04:39:42.340Z,12.00
2018-09-09T04:40:17.815Z,16.00
2018-09-09T04:40:53.557Z,16.00
2018-09-09T04:41:29.153Z,16.00
2018-09-09T04:42:04.474Z,20.00
2018-09-09T04:42:39.888Z,20.00
2018-09-09T04:43:15.304Z,24.00
2018-09-09T04:43:50.747Z,28.00
2018-09-09T04:44:26.295Z,28.00
2018-09-09T04:45:01.407Z,32.00
2018-09-09T04:45:36.559Z,32.00
2018-09-09T04:46:11.787Z,32.00
2018-09-09T04:46:47.114Z,36.00
2018-09-09T04:47:22.467Z,36.00
2018-09-09T04:47:57.561Z,40.00
2018-09-09T04:48:33.000Z,44.00
2018-09-09T04:49:08.131Z,44.00
2018-09-09T04:49:43.803Z,48.00
2018-09-09T04:50:18.937Z,52.00
2018-09-09T04:50:54.303Z,56.00
2018-09-09T04:51:29.621Z,60.00
2018-09-09T04:52:05.147Z,64.00
2018-09-09T04:52:40.494Z,68.00
2018-09-09T04:53:15.823Z,76.00
2018-09-09T04:53:51.429Z,80.00
2018-09-09T04:54:26.763Z,84.00
2018-09-09T04:55:02.464Z,92.00
2018-09-09T04:55:37.810Z,92.00
2018-09-09T04:56:13.254Z,100.00
2018-09-09T04:56:48.472Z,104.00
2018-09-09T04:57:23.829Z,104.00
2018-09-09T04:57:59.051Z,108.00
2018-09-09T04:58:34.189Z,116.00
2018-09-09T04:59:09.837Z,120.00
2018-09-09T04:59:45.136Z,124.00
2018-09-09T05:00:20.289Z,128.00
2018-09-09T05:00:55.583Z,128.00
2018-09-09T05:01:30.855Z,132.00
2018-09-09T05:02:06.086Z,128.00
2018-09-09T05:02:41.625Z,132.00
2018-09-09T05:03:17.084Z,132.00
2018-09-09T05:03:53.257Z,136.00
2018-09-09T05:04:28.718Z,140.00
2018-09-09T05:05:04.040Z,144.00
2018-09-09T05:05:39.469Z,152.00
2018-09-09T05:06:14.687Z,160.00
2018-09-09T05:06:50.121Z,176.00
2018-09-09T05:07:25.390Z,188.00
2018-09-09T05:08:00.504Z,200.00
2018-09-09T05:08:36.367Z,204.00
2018-09-09T05:09:11.850Z,208.00
2018-09-09T05:09:47.162Z,212.00
2018-09-09T05:10:22.733Z,216.00
2018-09-09T05:10:57.946Z,220.00
2018-09-09T05:11:33.288Z,228.00
2018-09-09T05:12:08.573Z,248.00
2018-09-09T05:12:44.076Z,280.00
2018-09-09T05:13:19.619Z,300.00
2018-09-09T05:13:54.938Z,308.00
2018-09-09T05:14:30.416Z,308.00
2018-09-09T05:15:06.008Z,304.00
2018-09-09T05:15:41.456Z,304.00
2018-09-09T05:16:16.479Z,308.00
2018-09-09T05:16:51.869Z,316.00
2018-09-09T05:17:27.436Z,328.00
2018-09-09T05:18:02.973Z,356.00
2018-09-09T05:18:38.436Z,384.00
2018-09-09T05:19:14.293Z,412.00
2018-09-09T05:19:49.483Z,432.00
2018-09-09T05:20:25.043Z,428.00
2018-09-09T05:21:00.337Z,416.00
2018-09-09T05:21:35.461Z,400.00
2018-09-09T05:22:10.674Z,376.00
2018-09-09T05:22:46.300Z,356.00
2018-09-09T05:23:21.957Z,336.00
2018-09-09T05:23:57.465Z,328.00
2018-09-09T05:24:33.081Z,328.00
2018-09-09T05:25:08.421Z,328.00
2018-09-09T05:25:43.727Z,332.00
2018-09-09T05:26:19.160Z,336.00
2018-09-09T05:26:54.368Z,344.00
2018-09-09T05:27:29.924Z,344.00
2018-09-09T05:28:05.385Z,344.00
2018-09-09T05:28:41.017Z,340.00
2018-09-09T05:29:16.256Z,332.00
2018-09-09T05:29:51.501Z,328.00
2018-09-09T05:30:26.760Z,320.00
2018-09-09T05:31:02.464Z,316.00
2018-09-09T05:31:37.590Z,312.00
2018-09-09T05:32:12.806Z,308.00
2018-09-09T05:32:48.444Z,300.00
2018-09-09T05:33:23.746Z,296.00
2018-09-09T05:33:59.094Z,292.00
2018-09-09T05:34:34.337Z,296.00
2018-09-09T05:35:10.046Z,328.00
2018-09-09T05:35:45.441Z,376.00
2018-09-09T05:36:20.963Z,420.00
2018-09-09T05:36:56.183Z,456.00
2018-09-09T05:37:31.515Z,472.00
2018-09-09T05:38:06.838Z,476.00
2018-09-09T05:38:42.322Z,484.00
2018-09-09T05:39:17.686Z,496.00
2018-09-09T05:39:53.090Z,504.00
2018-09-09T05:40:28.283Z,512.00
2018-09-09T05:41:03.833Z,512.00
2018-09-09T05:41:39.257Z,512.00
2018-09-09T05:42:14.472Z,516.00
2018-09-09T05:42:49.788Z,528.00
2018-09-09T05:43:25.292Z,548.00
2018-09-09T05:44:00.652Z,572.00
2018-09-09T05:44:36.137Z,596.00
2018-09-09T05:45:11.801Z,616.00
2018-09-09T05:45:47.171Z,632.00
2018-09-09T05:46:22.173Z,640.00
2018-09-09T05:46:57.795Z,664.00
2018-09-09T05:47:33.002Z,696.00
2018-09-09T05:48:08.248Z,720.00
2018-09-09T05:48:43.621Z,740.00
2018-09-09T05:49:19.247Z,756.00
2018-09-09T05:49:54.621Z,780.00
2018-09-09T05:50:30.030Z,832.00
2018-09-09T05:51:05.379Z,912.00
2018-09-09T05:51:40.515Z,936.00
2018-09-09T05:52:16.214Z,936.00
2018-09-09T05:52:51.277Z,948.00
2018-09-09T05:53:26.709Z,968.00
2018-09-09T05:54:01.976Z,968.00
2018-09-09T05:54:37.502Z,984.00
2018-09-09T05:55:12.768Z,1020.00
2018-09-09T05:55:48.314Z,1044.00
2018-09-09T05:56:23.411Z,1060.00
2018-09-09T05:56:58.849Z,1084.00
2018-09-09T05:57:34.214Z,1124.00
2018-09-09T05:58:09.324Z,1160.00
2018-09-09T05:58:44.787Z,1180.00
2018-09-09T05:59:20.133Z,1204.00
2018-09-09T05:59:55.792Z,1228.00
2018-09-09T06:00:31.188Z,1236.00
2018-09-09T06:01:06.565Z,1228.00
2018-09-09T06:01:41.872Z,1212.00
2018-09-09T06:02:17.435Z,1192.00
2018-09-09T06:02:52.882Z,1156.00
2018-09-09T06:03:28.199Z,1128.00
2018-09-09T06:04:03.860Z,1100.00
2018-09-09T06:04:39.231Z,1084.00
2018-09-09T06:05:14.461Z,1080.00
2018-09-09T06:05:49.808Z,1092.00
2018-09-09T06:06:26.223Z,1100.00
2018-09-09T06:07:01.727Z,1128.00
2018-09-09T06:07:38.170Z,1176.00
2018-09-09T06:08:13.906Z,1256.00
2018-09-09T06:08:49.497Z,1360.00
2018-09-09T06:09:25.012Z,1456.00
2018-09-09T06:10:00.254Z,1532.00
2018-09-09T06:10:36.250Z,1644.00
2018-09-09T06:11:12.102Z,1776.00
2018-09-09T06:11:47.444Z,1940.00
2018-09-09T06:12:23.218Z,2080.00
2018-09-09T06:12:59.844Z,2192.00
2018-09-09T06:13:35.067Z,2332.00
2018-09-09T06:14:10.521Z,2472.00
2018-09-09T06:14:45.958Z,2580.00
2018-09-09T06:15:21.517Z,2612.00
2018-09-09T06:15:57.034Z,2636.00
2018-09-09T06:16:32.261Z,2652.00
2018-09-09T06:17:11.555Z,2692.00
2018-09-09T06:17:47.277Z,2740.00
2018-09-09T06:18:22.835Z,2736.00
2018-09-09T06:18:58.195Z,2740.00
2018-09-09T06:19:33.526Z,2760.00
2018-09-09T06:20:08.804Z,2772.00
2018-09-09T06:20:44.283Z,2820.00
2018-09-09T06:21:19.697Z,2888.00
2018-09-09T06:21:55.126Z,2964.00
2018-09-09T06:22:30.414Z,3008.00
2018-09-09T06:23:05.760Z,3020.00
2018-09-09T06:23:41.218Z,3068.00
2018-09-09T06:24:16.508Z,3120.00
2018-09-09T06:24:52.036Z,3072.00
2018-09-09T06:25:27.417Z,2980.00
2018-09-09T06:26:02.871Z,2928.00
2018-09-09T06:26:37.968Z,2896.00
2018-09-09T06:27:13.391Z,2836.00
2018-09-09T06:27:48.717Z,2736.00
2018-09-09T06:28:24.254Z,2600.00
2018-09-09T06:28:59.682Z,2476.00
2018-09-09T06:29:34.780Z,2396.00
2018-09-09T06:30:10.407Z,2356.00
2018-09-09T06:30:45.510Z,2348.00
2018-09-09T06:31:20.769Z,2356.00
2018-09-09T06:31:56.124Z,2392.00
2018-09-09T06:32:31.429Z,2464.00
2018-09-09T06:33:06.704Z,2564.00
2018-09-09T06:33:42.376Z,2656.00
2018-09-09T06:34:17.765Z,2756.00
2018-09-09T06:34:52.871Z,2840.00
2018-09-09T06:35:28.238Z,2880.00
2018-09-09T06:36:03.817Z,2884.00
2018-09-09T06:36:39.135Z,2880.00
2018-09-09T06:37:14.550Z,2856.00
2018-09-09T06:37:49.752Z,2856.00
2018-09-09T06:38:25.197Z,2844.00
2018-09-09T06:39:00.780Z,2772.00
2018-09-09T06:39:36.035Z,2748.00
2018-09-09T06:40:11.385Z,2756.00
2018-09-09T06:40:46.706Z,2836.00
2018-09-09T06:41:22.117Z,2980.00
2018-09-09T06:41:57.505Z,3152.00
2018-09-09T06:42:32.832Z,3292.00
2018-09-09T06:43:08.201Z,3472.00
2018-09-09T06:43:43.517Z,3676.00
2018-09-09T06:44:18.747Z,3860.00
2018-09-09T06:44:54.110Z,3944.00
2018-09-09T06:45:29.256Z,3976.00
2018-09-09T06:46:04.521Z,3968.00
2018-09-09T06:46:39.837Z,3976.00
2018-09-09T06:47:15.217Z,4044.00
2018-09-09T06:47:50.423Z,4048.00
2018-09-09T06:48:25.742Z,4148.00
2018-09-09T06:49:01.104Z,4376.00
2018-09-09T06:49:36.751Z,4624.00
2018-09-09T06:50:12.122Z,4812.00
2018-09-09T06:50:47.534Z,4984.00
2018-09-09T06:51:22.983Z,5096.00
2018-09-09T06:51:58.421Z,4852.00
2018-09-09T06:52:33.674Z,4548.00
2018-09-09T06:53:09.215Z,4268.00
2018-09-09T06:53:44.223Z,4156.00
2018-09-09T06:54:19.638Z,4104.00
2018-09-09T06:54:55.081Z,4372.00
2018-09-09T06:55:30.201Z,5164.00
2018-09-09T06:56:05.752Z,5620.00
2018-09-09T06:56:41.042Z,8436.00
2018-09-09T06:57:16.487Z,7220.00
2018-09-09T06:57:52.040Z,5380.00
2018-09-09T06:58:27.387Z,4904.00
2018-09-09T06:59:02.960Z,5012.00
2018-09-09T06:59:38.079Z,8272.00
2018-09-09T07:00:13.314Z,6660.00
2018-09-09T07:00:48.730Z,16864.00
2018-09-09T07:01:24.146Z,11724.00
2018-09-09T07:01:59.590Z,14084.00
2018-09-09T07:02:35.002Z,9480.00
2018-09-09T07:03:10.574Z,10212.00
2018-09-09T07:03:45.909Z,6836.00
2018-09-09T07:04:21.130Z,7172.00
2018-09-09T07:04:56.469Z,6808.00
2018-09-09T07:05:31.689Z,6868.00
2018-09-09T07:06:06.942Z,9448.00
2018-09-09T07:06:42.234Z,12896.00
2018-09-09T07:07:18.160Z,12684.00
2018-09-09T07:07:53.469Z,10808.00
2018-09-09T07:08:29.074Z,15352.00
2018-09-09T07:09:04.690Z,20480.00
2018-09-09T07:09:40.006Z,11088.00
2018-09-09T07:10:15.326Z,13780.00
2018-09-09T07:10:50.911Z,18784.00
2018-09-09T07:11:26.620Z,12668.00
2018-09-09T07:12:01.887Z,13572.00
2018-09-09T07:12:37.239Z,12236.00
2018-09-09T07:13:12.679Z,13576.00
2018-09-09T07:13:47.905Z,8820.00
2018-09-09T07:14:23.085Z,11644.00
2018-09-09T07:14:58.416Z,10108.00
2018-09-09T07:15:33.845Z,8700.00
2018-09-09T07:16:09.366Z,7444.00
2018-09-09T07:16:45.080Z,7364.00
2018-09-09T07:17:20.427Z,7244.00
2018-09-09T07:17:56.240Z,7208.00
2018-09-09T07:18:31.507Z,7300.00
2018-09-09T07:19:06.788Z,7408.00
2018-09-09T07:19:42.378Z,7524.00
2018-09-09T07:20:17.748Z,7808.00
2018-09-09T07:20:52.944Z,8508.00
2018-09-09T07:21:28.365Z,10420.00
2018-09-09T07:22:04.008Z,10352.00
2018-09-09T07:22:39.266Z,13856.00
2018-09-09T07:23:14.435Z,18048.00
2018-09-09T07:23:49.745Z,10664.00
2018-09-09T07:24:25.484Z,9540.00
2018-09-09T07:25:01.188Z,9456.00
2018-09-09T07:25:36.822Z,10932.00
2018-09-09T07:26:12.052Z,10560.00
2018-09-09T07:26:47.461Z,10372.00
2018-09-09T07:27:23.101Z,9072.00
2018-09-09T07:27:58.417Z,9060.00
2018-09-09T07:28:33.704Z,9628.00
2018-09-09T07:29:08.954Z,13568.00
2018-09-09T07:29:44.456Z,9972.00
2018-09-09T07:30:19.792Z,8116.00
2018-09-09T07:30:55.099Z,8600.00
2018-09-09T07:31:30.499Z,8712.00
2018-09-09T07:32:06.428Z,8072.00
2018-09-09T07:32:41.760Z,7664.00
2018-09-09T07:33:16.984Z,7904.00
2018-09-09T07:33:52.504Z,8060.00
2018-09-09T07:34:27.937Z,7392.00
2018-09-09T07:35:03.467Z,7420.00
2018-09-09T07:35:39.013Z,7512.00